Mekoryuk, Alaska
Current Conditions -  °F | °C
As of 9:36 AM on Saturday 20 Dec 2014 (Local Time) from PAMY Reporting Station
Clear Clear  
Wind Chill: -4°   Ceiling: Unl
Heat Index: 14°   Visibility: 10mi
Dew Point:   Wind: 21mph
Humidity: 67%   Direction: 50°NE
Pressure: 29.18"   Gusts: NA
Location:  60.39°N, 166.19°W
Report Text: PAMY 201836Z AUTO 05018KT 10SM CLR M10/M15 A2918 RMK AO1
Loading
Personal Weather Stations






























Interactive Weather Map New forecast layout! Learn more

10-Day Weather Forecast

Advertisements
Track Severe Weather on mobile